Time;durP1;ratioP1;P1;durP2;ratioP2;P2;SDS_P1;SDS_P2;PMS_P1;PMS_P2;Temp;Humidity;BMP_temperature;BMP_pressure;BME280_temperature;BME280_humidity;BME280_pressure;Samples;Min_cycle;Max_cycle;Signal;HPM_P1;HPM_P2
2024/02/26 00:01:57;;;;;;;;;;;;;;;;;;5097726;28;19928;-75
2024/02/26 00:04:24;;;;;;;;;;;;;;;;;;5104520;28;19924;-74
2024/02/26 00:06:51;;;;;;;;;;;;;;;;;;5106359;28;20117;-74
2024/02/26 00:09:17;;;;;;;;;;;;;;;;;;5102593;28;19924;-76
2024/02/26 00:11:44;;;;;;;;;;;;;;;;;;5097711;28;19961;-77
2024/02/26 00:14:10;;;;;;;;;;;;;;;;;;5104093;28;19924;-75
2024/02/26 00:16:37;;;;;;;;;;;;;;;;;;5096158;28;20015;-76
2024/02/26 00:19:03;;;;;;;;;;;;;;;;;;5100745;27;20353;-75
2024/02/26 00:21:30;;;;;;;;;;;;;;;;;;5108563;28;19974;-74
2024/02/26 00:23:56;;;;;;;;;;;;;;;;;;5106468;28;19924;-75
2024/02/26 00:26:23;;;;;;;;;;;;;;;;;;5104780;28;19986;-75
2024/02/26 00:28:49;;;;;;;;;;;;;;;;;;5100702;28;20035;-75
2024/02/26 00:31:15;;;;;;;;;;;;;;;;;;5101387;28;19928;-76
2024/02/26 00:33:43;;;;;;;;;;;;;;;;;;5103477;28;19977;-76
2024/02/26 00:36:09;;;;;;;;;;;;;;;;;;5104357;28;20034;-76
2024/02/26 00:38:36;;;;;;;;;;;;;;;;;;5101664;28;20369;-76
2024/02/26 00:41:02;;;;;;;;;;;;;;;;;;5089361;28;19931;-74
2024/02/26 00:43:29;;;;;;;;;;;;;;;;;;5101301;28;19928;-76
2024/02/26 00:45:55;;;;;;;;;;;;;;;;;;5104120;28;19969;-74
2024/02/26 00:48:22;;;;;;;;;;;;;;;;;;5100649;28;19928;-76
2024/02/26 00:50:48;;;;;;;;;;;;;;;;;;5108717;28;20001;-74
2024/02/26 00:53:14;;;;;;;;;;;;;;;;;;5104163;28;19924;-76
2024/02/26 00:55:41;;;;;;;;;;;;;;;;;;5092202;28;20353;-75
2024/02/26 00:58:07;;;;;;;;;;;;;;;;;;5086226;28;19924;-75
2024/02/26 01:00:34;;;;;;;;;;;;;;;;;;5089801;28;19924;-75
2024/02/26 01:03:00;;;;;;;;;;;;;;;;;;5105913;28;20030;-75
2024/02/26 01:05:27;;;;;;;;;;;;;;;;;;5084741;28;19928;-76
2024/02/26 01:07:54;;;;;;;;;;;;;;;;;;5107095;28;19924;-76
2024/02/26 01:10:20;;;;;;;;;;;;;;;;;;5103226;28;20019;-77
2024/02/26 01:12:47;;;;;;;;;;;;;;;;;;5102621;28;19930;-75
2024/02/26 01:15:14;;;;;;;;;;;;;;;;;;5084953;28;20288;-77
2024/02/26 01:17:40;;;;;;;;;;;;;;;;;;5095317;28;19924;-76
2024/02/26 01:20:08;;;;;;;;;;;;;;;;;;5107542;28;20032;-76
2024/02/26 01:22:35;;;;;;;;;;;;;;;;;;5107300;28;19924;-77
2024/02/26 01:25:02;;;;;;;;;;;;;;;;;;5102754;28;19999;-77
2024/02/26 01:27:29;;;;;;;;;;;;;;;;;;5097602;28;19934;-76
2024/02/26 01:29:55;;;;;;;;;;;;;;;;;;5103625;28;19928;-75
2024/02/26 01:32:21;;;;;;;;;;;;;;;;;;5106703;28;19973;-75
2024/02/26 01:34:48;;;;;;;;;;;;;;;;;;5106579;28;19967;-77
2024/02/26 01:37:15;;;;;;;;;;;;;;;;;;5086524;28;20308;-77
2024/02/26 01:39:41;;;;;;;;;;;;;;;;;;5085975;28;19936;-78
2024/02/26 01:42:08;;;;;;;;;;;;;;;;;;5084610;28;19924;-77
2024/02/26 01:44:35;;;;;;;;;;;;;;;;;;5101481;28;20380;-78
2024/02/26 01:47:02;;;;;;;;;;;;;;;;;;5107407;28;19924;-80
2024/02/26 01:49:29;;;;;;;;;;;;;;;;;;5094247;28;19931;-79
2024/02/26 01:51:55;;;;;;;;;;;;;;;;;;5101160;28;19932;-79
2024/02/26 01:54:22;;;;;;;;;;;;;;;;;;5094172;28;20014;-79
2024/02/26 01:56:48;;;;;;;;;;;;;;;;;;5101264;28;19975;-78
2024/02/26 01:59:15;;;;;;;;;;;;;;;;;;5092433;28;19924;-79
2024/02/26 02:01:41;;;;;;;;;;;;;;;;;;5094205;28;20330;-80
2024/02/26 02:04:07;;;;;;;;;;;;;;;;;;5099286;28;19930;-81
2024/02/26 02:06:34;;;;;;;;;;;;;;;;;;5103091;28;19924;-79
2024/02/26 02:09:06;;;;;;;;;;;;;;;;;;5100883;28;19936;-80
2024/02/26 02:11:32;;;;;;;;;;;;;;;;;;5102333;28;19947;-80
2024/02/26 02:13:59;;;;;;;;;;;;;;;;;;5112473;28;19967;-80
2024/02/26 02:16:25;;;;;;;;;;;;;;;;;;5102634;28;19930;-78
2024/02/26 02:18:51;;;;;;;;;;;;;;;;;;5103015;28;19973;-80
2024/02/26 02:21:18;;;;;;;;;;;;;;;;;;5102346;28;19939;-81
2024/02/26 02:23:46;;;;;;;;;;;;;;;;;;5107477;28;19928;-80
2024/02/26 02:26:12;;;;;;;;;;;;;;;;;;5101827;28;19928;-79
2024/02/26 02:28:39;;;;;;;;;;;;;;;;;;5107593;28;20249;-78
2024/02/26 02:31:05;;;;;;;;;;;;;;;;;;5110554;28;20373;-80
2024/02/26 02:33:32;;;;;;;;;;;;;;;;;;5103944;28;20026;-79
2024/02/26 02:35:58;;;;;;;;;;;;;;;;;;5104997;28;19931;-80
2024/02/26 02:38:25;;;;;;;;;;;;;;;;;;5104997;28;19930;-79
2024/02/26 02:40:52;;;;;;;;;;;;;;;;;;5108208;28;19934;-81
2024/02/26 02:43:18;;;;;;;;;;;;;;;;;;5104869;28;19946;-80
2024/02/26 02:45:45;;;;;;;;;;;;;;;;;;5108726;28;19931;-81
2024/02/26 02:48:11;;;;;;;;;;;;;;;;;;5109211;28;19931;-79
2024/02/26 02:50:37;;;;;;;;;;;;;;;;;;5110040;28;19924;-81
2024/02/26 02:53:04;;;;;;;;;;;;;;;;;;5110414;28;19962;-82
2024/02/26 02:55:30;;;;;;;;;;;;;;;;;;5105448;28;20439;-80
2024/02/26 02:57:57;;;;;;;;;;;;;;;;;;5109297;28;19928;-79
2024/02/26 03:00:23;;;;;;;;;;;;;;;;;;5115471;28;20022;-78
2024/02/26 03:02:50;;;;;;;;;;;;;;;;;;5113817;28;19947;-78
2024/02/26 03:05:16;;;;;;;;;;;;;;;;;;5107818;28;19924;-80
2024/02/26 03:07:43;;;;;;;;;;;;;;;;;;5109634;28;19924;-79
2024/02/26 03:10:09;;;;;;;;;;;;;;;;;;5111000;28;20432;-78
2024/02/26 03:12:36;;;;;;;;;;;;;;;;;;5112247;28;19971;-80
2024/02/26 03:15:02;;;;;;;;;;;;;;;;;;5111031;28;20465;-81
2024/02/26 03:17:29;;;;;;;;;;;;;;;;;;5094134;28;19981;-81
2024/02/26 03:19:56;;;;;;;;;;;;;;;;;;5110887;28;19924;-81
2024/02/26 03:22:22;;;;;;;;;;;;;;;;;;5101180;28;19924;-78
2024/02/26 03:24:49;;;;;;;;;;;;;;;;;;5102113;28;20289;-81
2024/02/26 03:27:15;;;;;;;;;;;;;;;;;;5110690;28;19923;-79
2024/02/26 03:29:41;;;;;;;;;;;;;;;;;;5115281;28;19969;-80
2024/02/26 03:32:08;;;;;;;;;;;;;;;;;;5106284;28;19923;-80
2024/02/26 03:34:34;;;;;;;;;;;;;;;;;;5108339;28;19924;-78
2024/02/26 03:37:01;;;;;;;;;;;;;;;;;;5104087;28;19924;-80
2024/02/26 03:39:28;;;;;;;;;;;;;;;;;;5106255;28;19934;-79
2024/02/26 03:41:54;;;;;;;;;;;;;;;;;;5104815;28;20028;-76
2024/02/26 03:44:20;;;;;;;;;;;;;;;;;;5106189;28;20051;-80
2024/02/26 03:46:47;;;;;;;;;;;;;;;;;;5101518;28;19928;-79
2024/02/26 03:49:13;;;;;;;;;;;;;;;;;;5102830;28;19924;-79
2024/02/26 03:51:39;;;;;;;;;;;;;;;;;;5105604;28;20033;-78
2024/02/26 03:54:06;;;;;;;;;;;;;;;;;;5105287;28;20011;-78
2024/02/26 03:56:33;;;;;;;;;;;;;;;;;;5101204;28;19931;-77
2024/02/26 03:59:01;;;;;;;;;;;;;;;;;;5093310;28;19954;-77
2024/02/26 04:01:28;;;;;;;;;;;;;;;;;;5097257;28;19928;-80
2024/02/26 04:03:54;;;;;;;;;;;;;;;;;;5100008;28;20401;-80
2024/02/26 04:06:22;;;;;;;;;;;;;;;;;;5105498;28;19984;-78
2024/02/26 04:08:48;;;;;;;;;;;;;;;;;;5101166;28;19931;-78
2024/02/26 04:11:18;;;;;;;;;;;;;;;;;;5100580;28;19924;-79
2024/02/26 04:13:46;;;;;;;;;;;;;;;;;;5109021;28;19966;-79
2024/02/26 04:16:12;;;;;;;;;;;;;;;;;;5100689;28;19924;-77
2024/02/26 04:18:38;;;;;;;;;;;;;;;;;;5103318;28;20395;-78
2024/02/26 04:21:06;;;;;;;;;;;;;;;;;;5102742;28;19934;-79
2024/02/26 04:23:34;;;;;;;;;;;;;;;;;;5106968;28;19935;-79
2024/02/26 04:26:00;;;;;;;;;;;;;;;;;;5101426;28;19928;-79
2024/02/26 04:28:28;;;;;;;;;;;;;;;;;;5093200;28;19924;-80
2024/02/26 04:30:55;;;;;;;;;;;;;;;;;;5102817;28;19931;-78
2024/02/26 04:33:21;;;;;;;;;;;;;;;;;;5092326;28;19924;-79
2024/02/26 04:35:48;;;;;;;;;;;;;;;;;;5103084;28;20006;-78
2024/02/26 04:38:14;;;;;;;;;;;;;;;;;;5101455;28;19924;-77
2024/02/26 04:40:40;;;;;;;;;;;;;;;;;;5101936;28;19924;-79
2024/02/26 04:43:07;;;;;;;;;;;;;;;;;;5099916;28;19947;-77
2024/02/26 04:45:33;;;;;;;;;;;;;;;;;;5099981;28;19931;-79
2024/02/26 04:48:00;;;;;;;;;;;;;;;;;;5103750;28;19942;-75
2024/02/26 04:50:26;;;;;;;;;;;;;;;;;;5099624;28;20424;-79
2024/02/26 04:52:53;;;;;;;;;;;;;;;;;;5100659;28;19928;-78
2024/02/26 04:55:19;;;;;;;;;;;;;;;;;;5096658;28;19928;-80
2024/02/26 04:57:45;;;;;;;;;;;;;;;;;;5105488;28;19931;-82
2024/02/26 05:00:12;;;;;;;;;;;;;;;;;;5102262;28;19924;-81
2024/02/26 05:02:38;;;;;;;;;;;;;;;;;;5098688;28;19932;-80
2024/02/26 05:05:05;;;;;;;;;;;;;;;;;;5109452;28;19924;-81
2024/02/26 05:07:31;;;;;;;;;;;;;;;;;;5102504;28;19935;-81
2024/02/26 05:09:58;;;;;;;;;;;;;;;;;;5108584;28;20299;-81
2024/02/26 05:12:24;;;;;;;;;;;;;;;;;;5102608;28;20324;-79
2024/02/26 05:14:51;;;;;;;;;;;;;;;;;;5099778;28;20475;-79
2024/02/26 05:17:17;;;;;;;;;;;;;;;;;;5099337;28;20011;-80
2024/02/26 05:19:43;;;;;;;;;;;;;;;;;;5101221;28;19924;-79
2024/02/26 05:22:10;;;;;;;;;;;;;;;;;;5092801;28;20322;-81
2024/02/26 05:24:36;;;;;;;;;;;;;;;;;;5111048;28;19952;-80
2024/02/26 05:27:02;;;;;;;;;;;;;;;;;;5101079;28;19938;-82
2024/02/26 05:29:29;;;;;;;;;;;;;;;;;;5099086;28;19963;-80
2024/02/26 05:31:55;;;;;;;;;;;;;;;;;;5102727;28;19924;-81
2024/02/26 05:34:22;;;;;;;;;;;;;;;;;;5101728;28;19928;-79
2024/02/26 05:36:48;;;;;;;;;;;;;;;;;;5094620;28;19955;-81
2024/02/26 05:39:15;;;;;;;;;;;;;;;;;;5101140;28;19924;-81
2024/02/26 05:41:45;;;;;;;;;;;;;;;;;;5104849;28;19963;-81
2024/02/26 05:44:11;;;;;;;;;;;;;;;;;;5099410;28;19961;-80
2024/02/26 05:46:37;;;;;;;;;;;;;;;;;;5102179;28;19928;-80
2024/02/26 05:49:04;;;;;;;;;;;;;;;;;;5102480;28;19934;-79
2024/02/26 05:51:30;;;;;;;;;;;;;;;;;;5089831;28;20030;-81
2024/02/26 05:53:57;;;;;;;;;;;;;;;;;;5110414;28;20381;-81
2024/02/26 05:56:24;;;;;;;;;;;;;;;;;;5113006;28;19932;-81
2024/02/26 05:58:51;;;;;;;;;;;;;;;;;;5104672;28;19935;-81
2024/02/26 06:01:17;;;;;;;;;;;;;;;;;;5103554;28;19924;-81
2024/02/26 06:03:44;;;;;;;;;;;;;;;;;;5107587;28;20026;-81
2024/02/26 06:06:10;;;;;;;;;;;;;;;;;;5110195;28;19932;-81
2024/02/26 06:08:37;;;;;;;;;;;;;;;;;;5107789;28;20288;-79
2024/02/26 06:11:03;;;;;;;;;;;;;;;;;;5107748;28;19924;-80
2024/02/26 06:13:31;;;;;;;;;;;;;;;;;;5102734;28;19977;-80
2024/02/26 06:15:57;;;;;;;;;;;;;;;;;;5105190;28;19950;-81
2024/02/26 06:18:24;;;;;;;;;;;;;;;;;;5105801;28;20334;-80
2024/02/26 06:20:50;;;;;;;;;;;;;;;;;;5108026;28;19928;-79
2024/02/26 06:23:17;;;;;;;;;;;;;;;;;;5103914;28;19962;-82
2024/02/26 06:25:43;;;;;;;;;;;;;;;;;;5105755;28;20011;-81
2024/02/26 06:28:09;;;;;;;;;;;;;;;;;;5099546;28;19931;-81
2024/02/26 06:30:36;;;;;;;;;;;;;;;;;;5113365;28;19955;-81
2024/02/26 06:33:03;;;;;;;;;;;;;;;;;;5109645;28;19947;-81
2024/02/26 06:35:29;;;;;;;;;;;;;;;;;;5106428;28;19924;-81
2024/02/26 06:37:56;;;;;;;;;;;;;;;;;;5103445;28;19928;-81
2024/02/26 06:40:22;;;;;;;;;;;;;;;;;;5102437;28;19924;-81
2024/02/26 06:42:50;;;;;;;;;;;;;;;;;;5105823;28;20364;-81
2024/02/26 06:45:16;;;;;;;;;;;;;;;;;;5110748;28;19974;-80
2024/02/26 06:47:42;;;;;;;;;;;;;;;;;;5103396;28;19954;-81
2024/02/26 06:50:09;;;;;;;;;;;;;;;;;;5110803;28;19930;-81
2024/02/26 06:52:36;;;;;;;;;;;;;;;;;;5112542;28;19935;-80
2024/02/26 06:55:02;;;;;;;;;;;;;;;;;;5110401;28;19956;-79
2024/02/26 06:57:29;;;;;;;;;;;;;;;;;;5100271;28;19986;-81
2024/02/26 06:59:55;;;;;;;;;;;;;;;;;;5101283;28;19967;-81
2024/02/26 07:02:22;;;;;;;;;;;;;;;;;;5105163;28;19963;-81
2024/02/26 07:04:48;;;;;;;;;;;;;;;;;;5109680;28;19928;-78
2024/02/26 07:07:15;;;;;;;;;;;;;;;;;;5111111;28;19928;-74
2024/02/26 07:09:41;;;;;;;;;;;;;;;;;;5104347;28;19968;-76
2024/02/26 07:12:07;;;;;;;;;;;;;;;;;;5101428;28;20493;-75
2024/02/26 07:14:34;;;;;;;;;;;;;;;;;;5103562;28;19924;-76
2024/02/26 07:17:00;;;;;;;;;;;;;;;;;;5102732;28;20316;-76
2024/02/26 07:19:26;;;;;;;;;;;;;;;;;;5104051;28;19931;-76
2024/02/26 07:21:53;;;;;;;;;;;;;;;;;;5084569;28;19927;-75
2024/02/26 07:24:19;;;;;;;;;;;;;;;;;;5104645;28;19924;-78
2024/02/26 07:26:46;;;;;;;;;;;;;;;;;;5103012;28;20044;-76
2024/02/26 07:29:12;;;;;;;;;;;;;;;;;;5107882;28;19949;-77
2024/02/26 07:31:39;;;;;;;;;;;;;;;;;;5100465;28;19924;-77
2024/02/26 07:34:05;;;;;;;;;;;;;;;;;;5104271;28;19981;-76
2024/02/26 07:36:32;;;;;;;;;;;;;;;;;;5101903;28;20360;-76
2024/02/26 07:38:58;;;;;;;;;;;;;;;;;;5109258;28;19935;-78
2024/02/26 07:41:25;;;;;;;;;;;;;;;;;;5104892;28;19935;-74
2024/02/26 07:43:51;;;;;;;;;;;;;;;;;;5100015;27;19928;-76
2024/02/26 07:46:18;;;;;;;;;;;;;;;;;;5101163;28;19939;-78
2024/02/26 07:48:44;;;;;;;;;;;;;;;;;;5104645;28;19932;-77
2024/02/26 07:51:10;;;;;;;;;;;;;;;;;;5104814;28;19989;-78
2024/02/26 07:53:37;;;;;;;;;;;;;;;;;;5102568;28;19963;-76
2024/02/26 07:56:04;;;;;;;;;;;;;;;;;;5101038;28;20329;-77
2024/02/26 07:58:30;;;;;;;;;;;;;;;;;;5093033;28;20035;-75
2024/02/26 08:00:56;;;;;;;;;;;;;;;;;;5101878;28;19939;-77
2024/02/26 08:03:23;;;;;;;;;;;;;;;;;;5105134;28;19931;-76
2024/02/26 08:05:49;;;;;;;;;;;;;;;;;;5103433;28;19928;-77
2024/02/26 08:08:16;;;;;;;;;;;;;;;;;;5106138;28;19924;-76
2024/02/26 08:10:44;;;;;;;;;;;;;;;;;;5086204;28;19930;-77
2024/02/26 08:13:11;;;;;;;;;;;;;;;;;;5099237;28;19935;-78
2024/02/26 08:15:37;;;;;;;;;;;;;;;;;;5103320;28;19930;-78
2024/02/26 08:18:04;;;;;;;;;;;;;;;;;;5106119;28;19955;-75
2024/02/26 08:20:30;;;;;;;;;;;;;;;;;;5103339;28;19989;-77
2024/02/26 08:22:57;;;;;;;;;;;;;;;;;;5104543;28;19932;-76
2024/02/26 08:25:23;;;;;;;;;;;;;;;;;;5100185;28;19928;-77
2024/02/26 08:27:49;;;;;;;;;;;;;;;;;;5101927;28;19924;-77
2024/02/26 08:30:17;;;;;;;;;;;;;;;;;;5099581;28;19923;-77
2024/02/26 08:32:44;;;;;;;;;;;;;;;;;;5101455;28;19924;-74
2024/02/26 08:35:12;;;;;;;;;;;;;;;;;;5102987;28;19924;-76
2024/02/26 08:37:39;;;;;;;;;;;;;;;;;;5105073;28;19947;-77
2024/02/26 08:40:05;;;;;;;;;;;;;;;;;;5101252;28;19935;-77
2024/02/26 08:42:33;;;;;;;;;;;;;;;;;;5105049;28;19924;-75
2024/02/26 08:45:01;;;;;;;;;;;;;;;;;;5101440;28;19932;-77
2024/02/26 08:47:28;;;;;;;;;;;;;;;;;;5101156;28;20325;-76
2024/02/26 08:49:54;;;;;;;;;;;;;;;;;;5097474;28;19928;-75
2024/02/26 08:52:21;;;;;;;;;;;;;;;;;;5097401;28;19973;-77
2024/02/26 08:54:48;;;;;;;;;;;;;;;;;;5102031;28;19924;-77
2024/02/26 08:57:14;;;;;;;;;;;;;;;;;;5101089;28;19934;-78
2024/02/26 08:59:40;;;;;;;;;;;;;;;;;;5101113;28;20353;-76
2024/02/26 09:02:08;;;;;;;;;;;;;;;;;;5104080;28;19928;-76
2024/02/26 09:04:35;;;;;;;;;;;;;;;;;;5102072;28;19925;-78
2024/02/26 09:07:02;;;;;;;;;;;;;;;;;;5104047;28;19927;-76
2024/02/26 09:09:28;;;;;;;;;;;;;;;;;;5109677;28;20003;-76
2024/02/26 09:11:55;;;;;;;;;;;;;;;;;;5103074;28;19924;-78
2024/02/26 09:14:21;;;;;;;;;;;;;;;;;;5108092;28;19924;-76
2024/02/26 09:16:50;;;;;;;;;;;;;;;;;;5100145;28;19931;-77
2024/02/26 09:19:16;;;;;;;;;;;;;;;;;;5106447;28;19960;-78
2024/02/26 09:21:43;;;;;;;;;;;;;;;;;;5103815;28;20428;-77
2024/02/26 09:24:09;;;;;;;;;;;;;;;;;;5108032;28;19966;-76
2024/02/26 09:26:36;;;;;;;;;;;;;;;;;;5105521;28;19924;-77
2024/02/26 09:29:03;;;;;;;;;;;;;;;;;;5101068;28;20273;-76
2024/02/26 09:31:30;;;;;;;;;;;;;;;;;;5096182;28;19936;-76
2024/02/26 09:33:56;;;;;;;;;;;;;;;;;;5104235;28;19928;-78
2024/02/26 09:36:27;;;;;;;;;;;;;;;;;;5099992;28;19928;-76
2024/02/26 09:38:54;;;;;;;;;;;;;;;;;;5107561;28;19935;-77
2024/02/26 09:41:25;;;;;;;;;;;;;;;;;;5108900;28;20308;-78
2024/02/26 09:43:52;;;;;;;;;;;;;;;;;;5103941;28;19924;-78
2024/02/26 09:46:20;;;;;;;;;;;;;;;;;;5108017;28;19924;-75
2024/02/26 09:48:46;;;;;;;;;;;;;;;;;;5105776;28;19928;-77
2024/02/26 09:51:12;;;;;;;;;;;;;;;;;;5098520;28;20026;-76
2024/02/26 09:53:42;;;;;;;;;;;;;;;;;;5106480;28;19989;-76
2024/02/26 09:56:08;;;;;;;;;;;;;;;;;;5105125;28;19925;-77
2024/02/26 09:58:35;;;;;;;;;;;;;;;;;;5106911;28;20436;-76
2024/02/26 10:01:02;;;;;;;;;;;;;;;;;;5101921;28;19975;-78
2024/02/26 10:03:29;;;;;;;;;;;;;;;;;;5106949;28;20250;-75
2024/02/26 10:05:57;;;;;;;;;;;;;;;;;;5106579;28;20342;-77
2024/02/26 10:08:23;;;;;;;;;;;;;;;;;;5105151;28;19935;-78
2024/02/26 10:10:50;;;;;;;;;;;;;;;;;;5109559;28;19955;-77
2024/02/26 10:13:16;;;;;;;;;;;;;;;;;;5103059;28;19928;-74
2024/02/26 10:15:43;;;;;;;;;;;;;;;;;;5090604;28;19930;-75
2024/02/26 10:18:09;;;;;;;;;;;;;;;;;;5104866;28;19942;-75
2024/02/26 10:20:36;;;;;;;;;;;;;;;;;;5110583;28;20514;-76
2024/02/26 10:23:02;;;;;;;;;;;;;;;;;;5089080;28;20663;-77
2024/02/26 10:25:31;;;;;;;;;;;;;;;;;;5085746;28;19960;-77
2024/02/26 10:27:57;;;;;;;;;;;;;;;;;;5105244;28;19924;-77
2024/02/26 10:30:25;;;;;;;;;;;;;;;;;;5108780;28;19931;-77
2024/02/26 10:32:52;;;;;;;;;;;;;;;;;;5099127;28;20018;-79
2024/02/26 10:35:20;;;;;;;;;;;;;;;;;;5117033;27;19949;-77
2024/02/26 10:37:46;;;;;;;;;;;;;;;;;;5106452;28;20023;-77
2024/02/26 10:40:13;;;;;;;;;;;;;;;;;;5108666;28;19927;-77
2024/02/26 10:42:39;;;;;;;;;;;;;;;;;;5094367;28;19930;-77
2024/02/26 10:45:05;;;;;;;;;;;;;;;;;;5097380;28;19952;-77
2024/02/26 10:47:33;;;;;;;;;;;;;;;;;;5106939;28;19978;-78
2024/02/26 10:49:59;;;;;;;;;;;;;;;;;;5102690;28;19924;-76
2024/02/26 10:52:26;;;;;;;;;;;;;;;;;;5107280;28;20327;-76
2024/02/26 10:54:52;;;;;;;;;;;;;;;;;;5104031;28;20388;-75
2024/02/26 10:57:19;;;;;;;;;;;;;;;;;;5111047;28;19930;-74
2024/02/26 10:59:46;;;;;;;;;;;;;;;;;;5086966;28;19958;-78
2024/02/26 11:02:12;;;;;;;;;;;;;;;;;;5102933;28;19928;-76
2024/02/26 11:04:39;;;;;;;;;;;;;;;;;;5106295;28;19931;-78
2024/02/26 11:07:05;;;;;;;;;;;;;;;;;;5111462;28;19982;-76
2024/02/26 11:09:33;;;;;;;;;;;;;;;;;;5101703;28;20014;-75
2024/02/26 11:12:00;;;;;;;;;;;;;;;;;;5104858;28;20423;-77
2024/02/26 11:14:26;;;;;;;;;;;;;;;;;;5089108;28;19927;-75
2024/02/26 11:16:53;;;;;;;;;;;;;;;;;;5106345;28;20372;-76
2024/02/26 11:19:19;;;;;;;;;;;;;;;;;;5109304;28;19934;-77
2024/02/26 11:21:47;;;;;;;;;;;;;;;;;;5108138;28;20584;-77
2024/02/26 11:24:13;;;;;;;;;;;;;;;;;;5100243;28;20269;-78
2024/02/26 11:26:40;;;;;;;;;;;;;;;;;;5102803;28;19924;-77
2024/02/26 11:29:06;;;;;;;;;;;;;;;;;;5104407;28;19934;-77
2024/02/26 11:31:32;;;;;;;;;;;;;;;;;;5103439;28;19923;-77
2024/02/26 11:34:02;;;;;;;;;;;;;;;;;;5100852;28;20038;-77
2024/02/26 11:36:29;;;;;;;;;;;;;;;;;;5111496;28;19935;-78
2024/02/26 11:38:55;;;;;;;;;;;;;;;;;;5087016;28;19928;-75
2024/02/26 11:41:22;;;;;;;;;;;;;;;;;;5097904;28;20388;-77
2024/02/26 11:43:48;;;;;;;;;;;;;;;;;;5103686;28;19963;-79
2024/02/26 11:46:15;;;;;;;;;;;;;;;;;;5106284;28;20018;-75
2024/02/26 11:48:41;;;;;;;;;;;;;;;;;;5104183;28;19956;-77
2024/02/26 11:51:10;;;;;;;;;;;;;;;;;;5107131;28;19923;-76
2024/02/26 11:53:40;;;;;;;;;;;;;;;;;;5102714;28;20424;-77
2024/02/26 11:56:07;;;;;;;;;;;;;;;;;;5103400;28;19924;-76
2024/02/26 11:58:33;;;;;;;;;;;;;;;;;;5100889;28;20015;-77
2024/02/26 12:00:59;;;;;;;;;;;;;;;;;;5103832;28;19928;-77
2024/02/26 12:03:26;;;;;;;;;;;;;;;;;;5109167;28;19924;-79
2024/02/26 12:05:52;;;;;;;;;;;;;;;;;;5100836;28;19924;-76
2024/02/26 12:08:21;;;;;;;;;;;;;;;;;;5101079;28;20384;-78
2024/02/26 12:10:48;;;;;;;;;;;;;;;;;;5104284;28;19934;-76
2024/02/26 12:13:15;;;;;;;;;;;;;;;;;;5091970;28;20477;-77
2024/02/26 12:15:44;;;;;;;;;;;;;;;;;;5088229;28;19924;-77
2024/02/26 12:18:10;;;;;;;;;;;;;;;;;;5104442;28;19963;-77
2024/02/26 12:20:37;;;;;;;;;;;;;;;;;;5099957;28;19924;-75
2024/02/26 12:23:06;;;;;;;;;;;;;;;;;;5103989;28;20150;-75
2024/02/26 12:25:33;;;;;;;;;;;;;;;;;;5096135;28;20030;-77
2024/02/26 12:27:59;;;;;;;;;;;;;;;;;;5103225;28;20381;-77
2024/02/26 12:30:26;;;;;;;;;;;;;;;;;;5100745;28;19934;-77
2024/02/26 12:32:52;;;;;;;;;;;;;;;;;;5103571;28;20338;-77
2024/02/26 12:35:19;;;;;;;;;;;;;;;;;;5106148;28;19924;-78
2024/02/26 12:37:45;;;;;;;;;;;;;;;;;;5109003;28;19932;-76
2024/02/26 12:40:12;;;;;;;;;;;;;;;;;;5107292;28;19924;-76
2024/02/26 12:42:41;;;;;;;;;;;;;;;;;;5105017;28;19923;-77
2024/02/26 12:45:11;;;;;;;;;;;;;;;;;;5092416;28;19932;-76
2024/02/26 12:47:38;;;;;;;;;;;;;;;;;;5101706;28;19928;-76
2024/02/26 12:50:04;;;;;;;;;;;;;;;;;;5101908;28;20537;-78
2024/02/26 12:52:34;;;;;;;;;;;;;;;;;;5107012;28;19931;-77
2024/02/26 12:55:00;;;;;;;;;;;;;;;;;;5102825;28;19933;-78
2024/02/26 12:57:29;;;;;;;;;;;;;;;;;;5099349;28;19928;-77
2024/02/26 12:59:56;;;;;;;;;;;;;;;;;;5098913;28;20376;-77
2024/02/26 13:02:22;;;;;;;;;;;;;;;;;;5103831;28;19978;-80
2024/02/26 13:04:49;;;;;;;;;;;;;;;;;;5101806;28;19923;-77
2024/02/26 13:07:15;;;;;;;;;;;;;;;;;;5099680;28;20011;-77
2024/02/26 13:09:42;;;;;;;;;;;;;;;;;;5102264;28;19956;-76
2024/02/26 13:12:08;;;;;;;;;;;;;;;;;;5097281;28;19928;-77
2024/02/26 13:14:35;;;;;;;;;;;;;;;;;;5101276;28;19923;-77
2024/02/26 13:17:02;;;;;;;;;;;;;;;;;;5102389;28;19928;-75
2024/02/26 13:19:28;;;;;;;;;;;;;;;;;;5099178;28;20270;-77
2024/02/26 13:21:55;;;;;;;;;;;;;;;;;;5101605;28;19928;-78
2024/02/26 13:24:22;;;;;;;;;;;;;;;;;;5101121;28;19932;-75
2024/02/26 13:26:48;;;;;;;;;;;;;;;;;;5099812;28;19928;-76
2024/02/26 13:29:15;;;;;;;;;;;;;;;;;;5085560;28;19947;-76
2024/02/26 13:31:41;;;;;;;;;;;;;;;;;;5097121;28;20030;-75
2024/02/26 13:34:10;;;;;;;;;;;;;;;;;;5100626;28;20672;-77
2024/02/26 13:36:37;;;;;;;;;;;;;;;;;;5100869;28;19989;-76
2024/02/26 13:39:04;;;;;;;;;;;;;;;;;;5103288;28;19932;-75
2024/02/26 13:41:32;;;;;;;;;;;;;;;;;;5101556;28;19924;-76
2024/02/26 13:43:58;;;;;;;;;;;;;;;;;;5100322;28;19931;-77
2024/02/26 13:46:24;;;;;;;;;;;;;;;;;;5102781;28;20316;-76
2024/02/26 13:48:54;;;;;;;;;;;;;;;;;;5102405;28;20347;-75
2024/02/26 13:51:21;;;;;;;;;;;;;;;;;;5101864;28;19924;-78
2024/02/26 13:53:47;;;;;;;;;;;;;;;;;;5102051;28;20362;-77
2024/02/26 13:56:14;;;;;;;;;;;;;;;;;;5102911;28;20027;-77
2024/02/26 13:58:40;;;;;;;;;;;;;;;;;;5103692;28;19934;-76
2024/02/26 14:01:07;;;;;;;;;;;;;;;;;;5098463;28;20015;-78
2024/02/26 14:03:33;;;;;;;;;;;;;;;;;;5104937;28;20019;-77
2024/02/26 14:06:00;;;;;;;;;;;;;;;;;;5089138;28;19958;-74
2024/02/26 14:08:26;;;;;;;;;;;;;;;;;;5105992;28;20334;-79
2024/02/26 14:10:53;;;;;;;;;;;;;;;;;;5106713;28;19927;-77
2024/02/26 14:13:19;;;;;;;;;;;;;;;;;;5105022;28;19931;-75
2024/02/26 14:15:46;;;;;;;;;;;;;;;;;;5112968;28;20380;-76
2024/02/26 14:18:12;;;;;;;;;;;;;;;;;;5103540;28;19932;-78
2024/02/26 14:20:40;;;;;;;;;;;;;;;;;;5111490;28;20855;-79
2024/02/26 14:23:06;;;;;;;;;;;;;;;;;;5107289;28;19924;-76
2024/02/26 14:25:33;;;;;;;;;;;;;;;;;;5107877;28;19955;-77
2024/02/26 14:28:00;;;;;;;;;;;;;;;;;;5104540;28;19924;-76
2024/02/26 14:30:26;;;;;;;;;;;;;;;;;;5112347;28;19932;-77
2024/02/26 14:32:53;;;;;;;;;;;;;;;;;;5090922;28;19924;-76
2024/02/26 14:35:19;;;;;;;;;;;;;;;;;;5089968;28;19928;-77
2024/02/26 14:37:47;;;;;;;;;;;;;;;;;;5111209;28;19959;-75
2024/02/26 14:40:14;;;;;;;;;;;;;;;;;;5104729;28;19954;-77
2024/02/26 14:42:40;;;;;;;;;;;;;;;;;;5104578;28;19934;-78
2024/02/26 14:45:08;;;;;;;;;;;;;;;;;;5104090;28;20439;-77
2024/02/26 14:47:35;;;;;;;;;;;;;;;;;;5110841;28;19931;-77
2024/02/26 14:50:01;;;;;;;;;;;;;;;;;;5094759;28;19928;-74
2024/02/26 14:52:27;;;;;;;;;;;;;;;;;;5099789;28;20355;-77
2024/02/26 14:54:54;;;;;;;;;;;;;;;;;;5110054;28;20027;-74
2024/02/26 14:57:20;;;;;;;;;;;;;;;;;;5102609;28;19950;-76
2024/02/26 14:59:47;;;;;;;;;;;;;;;;;;5103566;28;19924;-77
2024/02/26 15:02:14;;;;;;;;;;;;;;;;;;5103788;28;20300;-76
2024/02/26 15:04:40;;;;;;;;;;;;;;;;;;5101959;28;19930;-78
2024/02/26 15:07:06;;;;;;;;;;;;;;;;;;5105133;28;20019;-78
2024/02/26 15:09:34;;;;;;;;;;;;;;;;;;5094673;28;19924;-76
2024/02/26 15:12:00;;;;;;;;;;;;;;;;;;5091407;28;19924;-75
2024/02/26 15:14:27;;;;;;;;;;;;;;;;;;5102186;28;20288;-75
2024/02/26 15:16:53;;;;;;;;;;;;;;;;;;5104877;28;20030;-76
2024/02/26 15:19:20;;;;;;;;;;;;;;;;;;5109824;28;20304;-75
2024/02/26 15:21:46;;;;;;;;;;;;;;;;;;5105570;28;19939;-79
2024/02/26 15:24:12;;;;;;;;;;;;;;;;;;5104494;28;20010;-76
2024/02/26 15:26:40;;;;;;;;;;;;;;;;;;5110285;28;19928;-75
2024/02/26 15:29:08;;;;;;;;;;;;;;;;;;5097123;28;19928;-76
2024/02/26 15:31:35;;;;;;;;;;;;;;;;;;5106994;28;19962;-77
2024/02/26 15:34:01;;;;;;;;;;;;;;;;;;5084833;28;19960;-77
2024/02/26 15:36:28;;;;;;;;;;;;;;;;;;5104768;28;20380;-76
2024/02/26 15:38:55;;;;;;;;;;;;;;;;;;5104172;28;20415;-75
2024/02/26 15:41:21;;;;;;;;;;;;;;;;;;5105966;28;20601;-77
2024/02/26 15:43:47;;;;;;;;;;;;;;;;;;5104225;28;19928;-77
2024/02/26 15:46:14;;;;;;;;;;;;;;;;;;5105326;28;20377;-76
2024/02/26 15:48:40;;;;;;;;;;;;;;;;;;5107898;28;19924;-75
2024/02/26 15:51:06;;;;;;;;;;;;;;;;;;5104465;28;20342;-77
2024/02/26 15:53:33;;;;;;;;;;;;;;;;;;5099333;28;19924;-77
2024/02/26 15:55:59;;;;;;;;;;;;;;;;;;5100222;28;20006;-75
2024/02/26 15:58:26;;;;;;;;;;;;;;;;;;5095811;28;20011;-75
2024/02/26 16:00:52;;;;;;;;;;;;;;;;;;5098378;28;19924;-79
2024/02/26 16:03:19;;;;;;;;;;;;;;;;;;5100360;28;20434;-76
2024/02/26 16:05:45;;;;;;;;;;;;;;;;;;5105584;28;19928;-75
2024/02/26 16:08:12;;;;;;;;;;;;;;;;;;5101198;28;20018;-75
2024/02/26 16:10:40;;;;;;;;;;;;;;;;;;5097216;28;20011;-75
2024/02/26 16:13:06;;;;;;;;;;;;;;;;;;5101382;28;19925;-78
2024/02/26 16:15:34;;;;;;;;;;;;;;;;;;5105384;28;19931;-75
2024/02/26 16:18:01;;;;;;;;;;;;;;;;;;5099554;28;19928;-74
2024/02/26 16:20:29;;;;;;;;;;;;;;;;;;5085180;28;19931;-77
2024/02/26 16:22:58;;;;;;;;;;;;;;;;;;5104521;28;19931;-75
2024/02/26 16:25:24;;;;;;;;;;;;;;;;;;5102115;28;19932;-78
2024/02/26 16:27:51;;;;;;;;;;;;;;;;;;5102919;28;19982;-77
2024/02/26 16:30:17;;;;;;;;;;;;;;;;;;5099495;28;20038;-75
2024/02/26 16:32:43;;;;;;;;;;;;;;;;;;5099191;28;20087;-79
2024/02/26 16:35:13;;;;;;;;;;;;;;;;;;5103829;28;19938;-75
2024/02/26 16:37:40;;;;;;;;;;;;;;;;;;5102217;28;19928;-77
2024/02/26 16:40:09;;;;;;;;;;;;;;;;;;5100371;28;19924;-76
2024/02/26 16:42:36;;;;;;;;;;;;;;;;;;5098919;28;19935;-77